createdAt,value
2017-10-21T00:00:50.974Z,12.10
2017-10-21T00:03:18.538Z,12.20
2017-10-21T00:05:46.114Z,12.10
2017-10-21T00:08:15.204Z,12.10
2017-10-21T00:10:43.694Z,12.20
2017-10-21T00:13:12.658Z,12.10
2017-10-21T00:15:40.276Z,12.10
2017-10-21T00:18:07.730Z,12.10
2017-10-21T00:20:35.226Z,12.10
2017-10-21T00:23:02.667Z,12.10
2017-10-21T00:25:30.138Z,12.20
2017-10-21T00:27:57.838Z,12.30
2017-10-21T00:30:25.296Z,12.30
2017-10-21T00:32:53.587Z,12.50
2017-10-21T00:35:21.834Z,12.50
2017-10-21T00:37:50.086Z,12.50
2017-10-21T00:40:17.541Z,12.50
2017-10-21T00:42:45.028Z,12.50
2017-10-21T00:45:13.261Z,12.60
2017-10-21T00:47:40.729Z,12.60
2017-10-21T00:50:08.231Z,12.60
2017-10-21T00:52:35.673Z,12.50
2017-10-21T00:55:03.924Z,12.50
2017-10-21T00:57:31.399Z,12.50
2017-10-21T00:59:59.655Z,12.50
2017-10-21T01:05:01.814Z,12.50
2017-10-21T01:07:29.274Z,12.60
2017-10-21T01:09:56.860Z,12.70
2017-10-21T01:12:24.328Z,12.50
2017-10-21T01:14:51.786Z,12.60
2017-10-21T01:17:20.041Z,12.70
2017-10-21T01:19:47.521Z,12.60
2017-10-21T01:22:15.061Z,12.60
2017-10-21T01:24:42.522Z,12.60
2017-10-21T01:27:09.994Z,12.60
2017-10-21T01:29:37.475Z,12.60
2017-10-21T01:32:05.704Z,12.60
2017-10-21T01:34:33.177Z,12.60
2017-10-21T01:37:00.640Z,12.60
2017-10-21T01:39:28.103Z,12.50
2017-10-21T01:41:55.572Z,12.50
2017-10-21T01:44:24.241Z,12.70
2017-10-21T01:46:51.693Z,12.60
2017-10-21T01:49:19.166Z,12.70
2017-10-21T01:51:47.422Z,12.60
2017-10-21T01:54:14.887Z,12.60
2017-10-21T01:56:43.153Z,12.50
2017-10-21T01:59:10.721Z,12.50
2017-10-21T02:01:39.714Z,12.50
2017-10-21T02:04:07.177Z,12.50
2017-10-21T02:06:35.447Z,12.60
2017-10-21T02:09:02.905Z,12.60
2017-10-21T02:11:30.372Z,12.60
2017-10-21T02:13:58.626Z,12.50
2017-10-21T02:16:26.245Z,12.40
2017-10-21T02:18:53.723Z,12.50
2017-10-21T02:21:21.212Z,12.50
2017-10-21T02:23:49.460Z,12.60
2017-10-21T02:26:16.924Z,12.60
2017-10-21T02:28:44.465Z,12.60
2017-10-21T02:31:11.950Z,12.60
2017-10-21T02:33:39.480Z,12.60
2017-10-21T02:36:06.948Z,12.70
2017-10-21T02:38:34.426Z,12.70
2017-10-21T02:41:01.902Z,12.70
2017-10-21T02:43:30.121Z,12.60
2017-10-21T02:45:57.605Z,12.60
2017-10-21T02:48:25.070Z,12.60
2017-10-21T02:50:52.547Z,12.70
2017-10-21T02:53:20.795Z,12.70
2017-10-21T02:55:48.286Z,12.70
2017-10-21T02:58:16.533Z,12.70
2017-10-21T03:00:44.973Z,12.70
2017-10-21T03:03:12.449Z,12.70
2017-10-21T03:05:39.905Z,12.80
2017-10-21T03:08:07.381Z,12.70
2017-10-21T03:10:34.920Z,12.80
2017-10-21T03:13:02.394Z,12.80
2017-10-21T03:15:29.962Z,12.80
2017-10-21T03:17:57.434Z,12.80
2017-10-21T03:20:25.680Z,12.90
2017-10-21T03:22:53.155Z,12.80
2017-10-21T03:25:21.402Z,12.80
2017-10-21T03:27:48.862Z,12.80
2017-10-21T03:30:16.329Z,12.80
2017-10-21T03:32:43.793Z,12.80
2017-10-21T03:35:12.024Z,12.80
2017-10-21T03:37:39.511Z,12.70
2017-10-21T03:40:07.008Z,12.70
2017-10-21T03:42:35.284Z,12.70
2017-10-21T03:45:03.506Z,12.70
2017-10-21T03:47:30.977Z,12.70
2017-10-21T03:49:58.451Z,12.70
2017-10-21T03:52:27.450Z,12.70
2017-10-21T03:54:54.921Z,12.70
2017-10-21T03:57:23.171Z,12.70
2017-10-21T03:59:50.630Z,12.70
2017-10-21T04:02:18.097Z,12.60
2017-10-21T04:04:46.320Z,12.60
2017-10-21T04:07:13.781Z,12.60
2017-10-21T04:09:41.243Z,12.60
2017-10-21T04:12:08.709Z,12.60
2017-10-21T04:14:36.282Z,12.60
2017-10-21T04:17:03.739Z,12.60
2017-10-21T04:19:31.224Z,12.60
2017-10-21T04:21:59.455Z,12.50
2017-10-21T04:24:26.952Z,12.50
2017-10-21T04:26:54.413Z,12.50
2017-10-21T04:29:22.681Z,12.50
2017-10-21T04:31:50.900Z,12.50
2017-10-21T04:34:18.370Z,12.50
2017-10-21T04:36:45.841Z,12.40
2017-10-21T04:39:13.473Z,12.40
2017-10-21T04:41:40.950Z,12.30
2017-10-21T04:44:08.415Z,12.30
2017-10-21T04:46:35.889Z,12.20
2017-10-21T04:49:04.861Z,12.00
2017-10-21T04:51:32.355Z,12.00
2017-10-21T04:54:00.601Z,12.00
2017-10-21T04:56:28.125Z,11.90
2017-10-21T04:58:55.602Z,12.00
2017-10-21T05:01:23.064Z,12.00
2017-10-21T05:03:50.544Z,11.90
2017-10-21T05:06:18.782Z,11.90
2017-10-21T05:08:46.277Z,11.90
2017-10-21T05:11:14.537Z,11.90
2017-10-21T05:13:42.013Z,11.80
2017-10-21T05:16:10.245Z,11.90
2017-10-21T05:18:37.721Z,11.80
2017-10-21T05:21:05.201Z,11.80
2017-10-21T05:23:33.444Z,11.80
2017-10-21T05:26:00.930Z,11.80
2017-10-21T05:28:28.392Z,11.90
2017-10-21T05:30:56.747Z,11.90
2017-10-21T05:33:24.277Z,11.80
2017-10-21T05:35:51.813Z,11.90
2017-10-21T05:38:19.279Z,11.90
2017-10-21T05:40:46.746Z,11.90
2017-10-21T05:43:14.225Z,11.90
2017-10-21T05:45:41.815Z,11.90
2017-10-21T05:48:09.292Z,11.90
2017-10-21T05:50:37.517Z,11.80
2017-10-21T05:53:06.823Z,11.90
2017-10-21T05:55:34.276Z,11.80
2017-10-21T05:58:01.758Z,11.90
2017-10-21T06:00:29.230Z,11.90
2017-10-21T06:02:57.549Z,11.90
2017-10-21T06:05:25.028Z,11.80
2017-10-21T06:07:52.501Z,11.90
2017-10-21T06:10:19.980Z,11.90
2017-10-21T06:12:48.229Z,12.00
2017-10-21T06:15:15.692Z,12.00
2017-10-21T06:17:43.162Z,12.00
2017-10-21T06:20:11.402Z,12.10
2017-10-21T06:22:38.886Z,12.10
2017-10-21T06:25:06.344Z,12.10
2017-10-21T06:27:33.813Z,12.20
2017-10-21T06:30:02.046Z,12.30
2017-10-21T06:32:29.548Z,12.20
2017-10-21T06:34:57.781Z,12.30
2017-10-21T06:37:25.254Z,12.30
2017-10-21T06:39:52.774Z,12.40
2017-10-21T06:42:20.247Z,12.40
2017-10-21T06:44:47.727Z,12.40
2017-10-21T06:47:16.694Z,12.40
2017-10-21T06:49:44.180Z,12.40
2017-10-21T06:52:13.151Z,12.40
2017-10-21T06:54:40.638Z,12.40
2017-10-21T06:57:08.957Z,12.50
2017-10-21T06:59:36.455Z,12.50
2017-10-21T07:02:03.942Z,12.50
2017-10-21T07:04:32.174Z,12.60
2017-10-21T07:06:59.748Z,12.60
2017-10-21T07:09:28.773Z,12.60
2017-10-21T07:11:56.281Z,12.60
2017-10-21T07:14:23.771Z,12.60
2017-10-21T07:16:51.416Z,12.60
2017-10-21T07:19:18.894Z,12.60
2017-10-21T07:21:47.139Z,12.60
2017-10-21T07:24:14.600Z,12.60
2017-10-21T07:26:42.069Z,12.60
2017-10-21T07:29:09.536Z,12.60
2017-10-21T07:31:37.793Z,12.50
2017-10-21T07:34:05.249Z,12.50
2017-10-21T07:36:34.217Z,12.50
2017-10-21T07:39:01.718Z,12.50
2017-10-21T07:41:29.953Z,12.50
2017-10-21T07:43:57.445Z,12.50
2017-10-21T07:46:25.681Z,12.50
2017-10-21T07:48:53.163Z,12.50
2017-10-21T07:51:20.673Z,12.50
2017-10-21T07:53:48.181Z,12.40
2017-10-21T07:56:15.645Z,12.40
2017-10-21T07:58:43.125Z,12.30
2017-10-21T08:01:10.617Z,12.20
2017-10-21T08:03:38.066Z,12.30
2017-10-21T08:06:05.690Z,12.20
2017-10-21T08:08:33.941Z,12.10
2017-10-21T08:11:01.425Z,12.10
2017-10-21T08:13:29.658Z,12.10
2017-10-21T08:15:57.146Z,12.10
2017-10-21T08:18:26.105Z,12.20
2017-10-21T08:20:53.587Z,12.20
2017-10-21T08:23:21.975Z,12.20
2017-10-21T08:25:49.432Z,12.20
2017-10-21T08:28:17.675Z,12.20
2017-10-21T08:30:45.235Z,12.20
2017-10-21T08:33:12.701Z,12.30
2017-10-21T08:35:40.188Z,12.40
2017-10-21T08:38:08.463Z,12.40
2017-10-21T08:40:36.705Z,12.40
2017-10-21T08:43:04.254Z,12.40
2017-10-21T08:45:31.709Z,12.50
2017-10-21T08:47:59.756Z,12.40
2017-10-21T08:50:27.260Z,12.50
2017-10-21T08:52:56.233Z,12.50
2017-10-21T08:55:23.725Z,12.50
2017-10-21T08:57:52.061Z,12.60
2017-10-21T09:00:19.702Z,12.60
2017-10-21T09:02:47.184Z,12.60
2017-10-21T09:05:14.670Z,12.70
2017-10-21T09:07:42.280Z,12.70
2017-10-21T09:10:09.778Z,12.70
2017-10-21T09:12:37.286Z,12.80
2017-10-21T09:15:04.749Z,12.90
2017-10-21T09:17:32.209Z,12.90
2017-10-21T09:19:59.710Z,13.00
2017-10-21T09:22:27.355Z,13.00
2017-10-21T09:24:54.831Z,13.10
2017-10-21T09:27:22.289Z,13.10
2017-10-21T09:29:49.746Z,13.20
2017-10-21T09:32:17.237Z,13.20
2017-10-21T09:34:44.719Z,13.20
2017-10-21T09:37:12.182Z,13.30
2017-10-21T09:39:39.661Z,13.30
2017-10-21T09:42:07.133Z,13.30
2017-10-21T09:44:34.612Z,13.40
2017-10-21T09:47:02.845Z,13.50
2017-10-21T09:49:30.329Z,13.50
2017-10-21T09:51:58.684Z,13.60
2017-10-21T09:54:26.210Z,13.50
2017-10-21T09:56:53.692Z,13.60
2017-10-21T09:59:21.186Z,13.60
2017-10-21T10:01:48.664Z,13.70
2017-10-21T10:04:16.131Z,13.80
2017-10-21T10:06:43.600Z,13.80
2017-10-21T10:09:11.097Z,13.90
2017-10-21T10:11:39.341Z,14.20
2017-10-21T10:14:06.958Z,14.10
2017-10-21T10:16:34.465Z,14.30
2017-10-21T10:19:01.967Z,14.40
2017-10-21T10:21:30.194Z,14.50
2017-10-21T10:23:57.674Z,14.50
2017-10-21T10:26:25.155Z,14.50
2017-10-21T10:28:53.387Z,14.60
2017-10-21T10:31:20.854Z,14.60
2017-10-21T10:33:48.324Z,14.70
2017-10-21T10:36:16.565Z,14.70
2017-10-21T10:38:44.041Z,14.70
2017-10-21T10:41:11.512Z,14.80
2017-10-21T10:43:38.990Z,14.90
2017-10-21T10:46:07.237Z,15.10
2017-10-21T10:48:34.764Z,15.10
2017-10-21T10:51:02.221Z,15.10
2017-10-21T10:53:29.708Z,15.30
2017-10-21T10:55:57.228Z,15.30
2017-10-21T10:58:24.709Z,15.40
2017-10-21T11:00:52.177Z,15.40
2017-10-21T11:03:20.425Z,15.50
2017-10-21T11:05:47.907Z,15.50
2017-10-21T11:08:15.380Z,15.60
2017-10-21T11:10:42.866Z,15.70
2017-10-21T11:13:10.449Z,15.70
2017-10-21T11:15:37.976Z,15.80
2017-10-21T11:18:06.258Z,15.90
2017-10-21T11:20:33.745Z,15.90
2017-10-21T11:23:01.201Z,16.00
2017-10-21T11:25:28.654Z,16.10
2017-10-21T11:27:56.330Z,16.10
2017-10-21T11:30:23.802Z,16.20
2017-10-21T11:32:52.804Z,16.20
2017-10-21T11:35:20.767Z,16.20
2017-10-21T11:37:49.762Z,16.30
2017-10-21T11:40:17.226Z,16.30
2017-10-21T11:42:45.475Z,16.40
2017-10-21T11:45:12.949Z,16.40
2017-10-21T11:47:40.428Z,16.50
2017-10-21T11:50:08.653Z,16.60
2017-10-21T11:52:36.137Z,16.60
2017-10-21T11:55:04.483Z,16.70
2017-10-21T11:57:32.197Z,16.60
2017-10-21T12:00:02.221Z,16.70
2017-10-21T12:02:30.646Z,16.70
2017-10-21T12:04:58.137Z,16.70
2017-10-21T12:07:25.680Z,16.70
2017-10-21T12:09:53.149Z,16.80
2017-10-21T12:12:21.394Z,16.90
2017-10-21T12:14:48.893Z,16.90
2017-10-21T12:17:17.119Z,17.20
2017-10-21T12:19:44.855Z,17.20
2017-10-21T12:22:13.225Z,17.40
2017-10-21T12:24:41.452Z,17.40
2017-10-21T12:27:08.953Z,17.40
2017-10-21T12:29:37.042Z,17.60
2017-10-21T12:32:05.497Z,17.60
2017-10-21T12:34:34.302Z,17.60
2017-10-21T12:37:03.846Z,17.60
2017-10-21T12:39:31.650Z,17.60
2017-10-21T12:41:59.207Z,17.60
2017-10-21T12:44:27.450Z,17.60
2017-10-21T12:46:55.535Z,17.50
2017-10-21T12:49:23.218Z,17.50
2017-10-21T12:52:11.655Z,17.50
2017-10-21T12:54:40.753Z,17.50
2017-10-21T12:57:08.234Z,17.50
2017-10-21T12:59:36.610Z,17.50
2017-10-21T13:02:05.007Z,17.50
2017-10-21T13:04:32.818Z,17.60
2017-10-21T13:07:00.284Z,17.70
2017-10-21T13:09:27.817Z,17.70
2017-10-21T13:11:55.837Z,17.60
2017-10-21T13:14:24.587Z,17.60
2017-10-21T13:16:52.177Z,17.60
2017-10-21T13:19:20.960Z,17.60
2017-10-21T13:21:48.529Z,17.60
2017-10-21T13:24:16.793Z,17.60
2017-10-21T13:26:44.822Z,17.60
2017-10-21T13:29:12.299Z,17.60
2017-10-21T13:31:39.785Z,17.50
2017-10-21T13:34:08.308Z,17.50
2017-10-21T13:36:35.837Z,17.40
2017-10-21T13:39:03.919Z,17.50
2017-10-21T13:41:31.438Z,17.50
2017-10-21T13:43:58.925Z,17.40
2017-10-21T13:46:27.154Z,17.50
2017-10-21T13:48:54.817Z,17.50
2017-10-21T13:51:22.809Z,17.50
2017-10-21T13:53:50.302Z,17.40
2017-10-21T13:56:17.783Z,17.40
2017-10-21T13:58:45.468Z,17.30
2017-10-21T14:01:12.940Z,17.30
2017-10-21T14:03:40.426Z,17.30
2017-10-21T14:06:19.191Z,17.30
2017-10-21T14:08:46.677Z,17.30
2017-10-21T14:11:21.616Z,17.30
2017-10-21T14:13:49.357Z,17.20
2017-10-21T14:16:16.842Z,17.20
2017-10-21T14:18:45.078Z,17.10
2017-10-21T14:21:12.577Z,17.10
2017-10-21T14:23:40.806Z,17.20
2017-10-21T14:26:08.334Z,17.20
2017-10-21T14:28:35.795Z,17.20
2017-10-21T14:31:03.284Z,17.20
2017-10-21T14:33:30.753Z,17.10
2017-10-21T14:35:58.234Z,17.10
2017-10-21T14:38:26.498Z,17.10
2017-10-21T14:40:53.959Z,17.00
2017-10-21T14:43:22.218Z,17.00
2017-10-21T14:45:49.684Z,17.00
2017-10-21T14:48:17.353Z,16.90
2017-10-21T14:50:44.821Z,16.90
2017-10-21T14:53:13.066Z,16.80
2017-10-21T14:55:40.700Z,16.80
2017-10-21T14:58:08.171Z,16.80
2017-10-21T15:00:35.862Z,16.80
2017-10-21T15:03:04.210Z,16.80
2017-10-21T15:05:31.689Z,16.80
2017-10-21T15:07:59.171Z,16.80
2017-10-21T15:10:35.579Z,16.80
2017-10-21T15:13:04.229Z,16.80
2017-10-21T15:15:31.721Z,16.80
2017-10-21T15:17:59.325Z,16.80
2017-10-21T15:20:27.618Z,16.70
2017-10-21T15:22:55.110Z,16.70
2017-10-21T15:25:22.637Z,16.80
2017-10-21T15:27:50.118Z,16.70
2017-10-21T15:30:17.581Z,16.70
2017-10-21T15:32:45.069Z,16.70
2017-10-21T15:35:12.636Z,16.60
2017-10-21T15:37:40.910Z,16.50
2017-10-21T15:40:08.401Z,16.50
2017-10-21T15:42:36.635Z,16.20
2017-10-21T15:45:04.101Z,16.20
2017-10-21T15:47:31.566Z,16.10
2017-10-21T15:49:59.810Z,15.90
2017-10-21T15:52:27.284Z,15.90
2017-10-21T15:54:54.754Z,15.90
2017-10-21T15:57:23.701Z,15.80
2017-10-21T15:59:51.201Z,15.80
2017-10-21T16:02:18.969Z,15.80
2017-10-21T16:04:47.346Z,15.80
2017-10-21T16:07:15.610Z,15.80
2017-10-21T16:09:43.658Z,15.80
2017-10-21T16:12:11.208Z,15.80
2017-10-21T16:14:38.968Z,15.80
2017-10-21T16:17:07.077Z,15.70
2017-10-21T16:19:34.622Z,15.60
2017-10-21T16:22:02.879Z,15.50
2017-10-21T16:24:30.401Z,15.50
2017-10-21T16:26:59.279Z,15.50
2017-10-21T16:29:27.269Z,15.50
2017-10-21T16:31:54.751Z,15.50
2017-10-21T16:34:26.261Z,15.50
2017-10-21T16:36:54.595Z,15.50
2017-10-21T16:39:22.629Z,15.50
2017-10-21T16:41:50.275Z,15.50
2017-10-21T16:44:18.529Z,15.40
2017-10-21T16:46:47.845Z,15.30
2017-10-21T16:49:16.077Z,15.30
2017-10-21T16:51:43.562Z,15.30
2017-10-21T16:54:11.813Z,15.30
2017-10-21T16:56:39.283Z,15.30
2017-10-21T16:59:07.263Z,15.20
2017-10-21T17:01:35.668Z,15.20
2017-10-21T17:04:03.247Z,15.10
2017-10-21T17:06:31.030Z,15.10
2017-10-21T17:09:00.470Z,15.10
2017-10-21T17:11:28.946Z,15.10
2017-10-21T17:13:56.703Z,15.10
2017-10-21T17:16:24.435Z,15.10
2017-10-21T17:18:51.946Z,15.10
2017-10-21T17:21:19.436Z,15.10
2017-10-21T17:23:46.930Z,15.10
2017-10-21T17:26:15.238Z,15.00
2017-10-21T17:28:43.619Z,15.00
2017-10-21T17:31:11.864Z,15.00
2017-10-21T17:33:39.715Z,14.90
2017-10-21T17:36:07.192Z,14.80
2017-10-21T17:38:34.761Z,14.70
2017-10-21T17:41:03.047Z,14.60
2017-10-21T17:43:31.394Z,14.70
2017-10-21T17:45:58.867Z,14.70
2017-10-21T17:48:27.222Z,14.50
2017-10-21T17:50:54.822Z,14.40
2017-10-21T17:53:23.801Z,14.70
2017-10-21T17:55:52.060Z,14.70
2017-10-21T17:58:19.540Z,14.70
2017-10-21T18:00:47.807Z,14.60
2017-10-21T18:03:16.053Z,14.50
2017-10-21T18:05:43.522Z,14.50
2017-10-21T18:08:11.776Z,14.50
2017-10-21T18:10:39.337Z,14.50
2017-10-21T18:13:06.823Z,14.60
2017-10-21T18:15:34.345Z,14.60
2017-10-21T18:18:01.844Z,14.60
2017-10-21T18:20:30.063Z,14.60
2017-10-21T18:22:57.694Z,14.60
2017-10-21T18:25:25.944Z,14.50
2017-10-21T18:27:53.420Z,14.50
2017-10-21T18:30:21.685Z,14.50
2017-10-21T18:32:49.141Z,14.50
2017-10-21T18:35:17.402Z,14.50
2017-10-21T18:37:44.886Z,14.50
2017-10-21T18:40:13.127Z,14.50
2017-10-21T18:42:40.610Z,14.50
2017-10-21T18:45:08.843Z,14.40
2017-10-21T18:47:36.324Z,14.40
2017-10-21T18:50:03.785Z,14.50
2017-10-21T18:52:32.017Z,14.50
2017-10-21T18:54:59.504Z,14.40
2017-10-21T18:57:26.977Z,14.50
2017-10-21T18:59:54.477Z,14.50
2017-10-21T19:02:21.991Z,14.50
2017-10-21T19:04:50.329Z,14.50
2017-10-21T19:07:17.850Z,14.50
2017-10-21T19:09:46.108Z,14.50
2017-10-21T19:12:13.672Z,14.40
2017-10-21T19:14:41.939Z,14.40
2017-10-21T19:17:09.472Z,14.40
2017-10-21T19:19:36.967Z,14.40
2017-10-21T19:22:05.213Z,14.30
2017-10-21T19:24:33.306Z,14.30
2017-10-21T19:27:02.619Z,14.00
2017-10-21T19:29:30.907Z,14.00
2017-10-21T19:31:58.422Z,13.80
2017-10-21T19:34:25.919Z,13.70
2017-10-21T19:36:53.413Z,13.60
2017-10-21T19:39:20.940Z,13.50
2017-10-21T19:41:49.402Z,13.40
2017-10-21T19:44:17.938Z,13.30
2017-10-21T19:46:45.414Z,13.30
2017-10-21T19:49:14.438Z,13.20
2017-10-21T19:51:42.456Z,13.20
2017-10-21T19:54:09.982Z,13.10
2017-10-21T19:56:37.581Z,13.10
2017-10-21T19:59:05.348Z,13.10
2017-10-21T20:01:32.997Z,13.00
2017-10-21T20:04:00.510Z,13.00
2017-10-21T20:06:28.753Z,13.10
2017-10-21T20:08:56.236Z,13.00
2017-10-21T20:11:24.543Z,12.90
2017-10-21T20:13:52.946Z,12.90
2017-10-21T20:16:20.533Z,13.00
2017-10-21T20:18:48.189Z,13.00
2017-10-21T20:21:15.662Z,12.90
2017-10-21T20:23:43.938Z,12.90
2017-10-21T20:26:11.410Z,12.90
2017-10-21T20:28:39.642Z,12.90
2017-10-21T20:31:07.133Z,12.90
2017-10-21T20:33:35.608Z,13.00
2017-10-21T20:36:03.878Z,13.00
2017-10-21T20:38:32.770Z,13.10
2017-10-21T20:41:01.341Z,13.10
2017-10-21T20:43:29.002Z,13.10
2017-10-21T20:45:56.563Z,13.20
2017-10-21T20:48:24.707Z,13.30
2017-10-21T20:50:52.205Z,13.30
2017-10-21T20:53:20.754Z,13.30
2017-10-21T20:55:48.253Z,13.20
2017-10-21T20:58:16.496Z,13.30
2017-10-21T21:00:44.493Z,13.20
2017-10-21T21:03:11.974Z,13.30
2017-10-21T21:05:39.505Z,13.20
2017-10-21T21:08:07.786Z,13.10
2017-10-21T21:10:36.014Z,13.20
2017-10-21T21:13:03.497Z,13.20
2017-10-21T21:15:31.490Z,13.20
2017-10-21T21:17:59.747Z,13.20
2017-10-21T21:20:27.223Z,13.20
2017-10-21T21:22:54.901Z,13.20
2017-10-21T21:25:22.406Z,13.20
2017-10-21T21:27:49.893Z,13.20
2017-10-21T21:30:18.138Z,13.20
2017-10-21T21:32:45.617Z,13.20
2017-10-21T21:35:13.886Z,13.20
2017-10-21T21:37:41.352Z,13.10
2017-10-21T21:40:09.590Z,13.10
2017-10-21T21:42:37.065Z,13.10
2017-10-21T21:45:10.620Z,13.10
2017-10-21T21:47:38.084Z,13.10
2017-10-21T21:50:05.607Z,13.10
2017-10-21T21:52:33.847Z,13.10
2017-10-21T21:55:01.326Z,13.00
2017-10-21T21:57:29.071Z,13.10
2017-10-21T21:59:56.553Z,13.00
2017-10-21T22:02:25.019Z,13.00
2017-10-21T22:04:52.513Z,13.00
2017-10-21T22:07:20.813Z,12.90
2017-10-21T22:09:48.285Z,12.90
2017-10-21T22:12:15.978Z,13.00
2017-10-21T22:14:44.947Z,12.90
2017-10-21T22:17:12.557Z,12.90
2017-10-21T22:19:40.805Z,12.90
2017-10-21T22:22:08.278Z,12.90
2017-10-21T22:24:36.702Z,12.90
2017-10-21T22:27:05.175Z,12.90
2017-10-21T22:29:33.130Z,12.90
2017-10-21T22:32:00.603Z,12.80
2017-10-21T22:34:28.111Z,12.80
2017-10-21T22:36:56.478Z,12.80
2017-10-21T22:39:25.507Z,12.80
2017-10-21T22:41:53.773Z,12.80
2017-10-21T22:44:22.039Z,12.80
2017-10-21T22:46:50.304Z,12.80
2017-10-21T22:49:17.821Z,12.80
2017-10-21T22:51:45.308Z,12.90
2017-10-21T22:54:12.874Z,12.80
2017-10-21T22:56:40.404Z,12.80
2017-10-21T22:59:07.870Z,12.90
2017-10-21T23:01:35.357Z,12.80
2017-10-21T23:04:02.841Z,12.90
2017-10-21T23:06:30.362Z,12.80
2017-10-21T23:08:57.837Z,12.80
2017-10-21T23:11:26.085Z,12.80
2017-10-21T23:13:53.573Z,12.80
2017-10-21T23:16:21.802Z,12.90
2017-10-21T23:18:49.274Z,12.80
2017-10-21T23:21:16.775Z,12.90
2017-10-21T23:23:44.254Z,12.90
2017-10-21T23:26:11.779Z,12.90
2017-10-21T23:28:40.014Z,12.80
2017-10-21T23:31:07.491Z,12.80
2017-10-21T23:33:35.110Z,12.80
2017-10-21T23:36:02.585Z,12.80
2017-10-21T23:38:30.226Z,12.80
2017-10-21T23:40:57.862Z,12.80
2017-10-21T23:43:25.354Z,12.80
2017-10-21T23:45:52.938Z,12.80
2017-10-21T23:48:20.425Z,12.80
2017-10-21T23:50:47.910Z,12.80
2017-10-21T23:53:15.404Z,12.80
2017-10-21T23:55:43.666Z,12.70
2017-10-21T23:58:11.162Z,12.70
